sensor_id;sensor_type;location;lat;lon;timestamp;temperature;humidity
21849;DHT22;11089;49.852;19.700;2023-07-20T00:01:27;19.20;99.90
21849;DHT22;11089;49.852;19.700;2023-07-20T00:04:28;19.10;99.90
21849;DHT22;11089;49.852;19.700;2023-07-20T00:07:29;18.90;1.00
21849;DHT22;11089;49.852;19.700;2023-07-20T00:10:30;18.80;1.00
21849;DHT22;11089;49.852;19.700;2023-07-20T00:13:31;18.80;1.00
21849;DHT22;11089;49.852;19.700;2023-07-20T00:16:32;18.80;1.00
21849;DHT22;11089;49.852;19.700;2023-07-20T00:19:33;18.80;1.00
21849;DHT22;11089;49.852;19.700;2023-07-20T00:22:34;18.80;1.00
21849;DHT22;11089;49.852;19.700;2023-07-20T00:25:34;18.70;1.00
21849;DHT22;11089;49.852;19.700;2023-07-20T00:28:36;18.50;1.00
21849;DHT22;11089;49.852;19.700;2023-07-20T00:31:37;18.50;99.90
21849;DHT22;11089;49.852;19.700;2023-07-20T00:34:37;18.30;1.00
21849;DHT22;11089;49.852;19.700;2023-07-20T00:37:39;18.30;1.00
21849;DHT22;11089;49.852;19.700;2023-07-20T00:40:40;18.50;1.00
21849;DHT22;11089;49.852;19.700;2023-07-20T00:43:41;18.30;1.00
21849;DHT22;11089;49.852;19.700;2023-07-20T00:46:43;18.10;99.90
21849;DHT22;11089;49.852;19.700;2023-07-20T00:49:44;18.10;99.90
21849;DHT22;11089;49.852;19.700;2023-07-20T00:52:45;18.10;99.90
21849;DHT22;11089;49.852;19.700;2023-07-20T00:55:46;18.00;99.90
21849;DHT22;11089;49.852;19.700;2023-07-20T00:58:47;18.10;30.70
21849;DHT22;11089;49.852;19.700;2023-07-20T01:01:48;18.00;99.90
21849;DHT22;11089;49.852;19.700;2023-07-20T01:04:49;18.00;99.90
21849;DHT22;11089;49.852;19.700;2023-07-20T01:07:59;18.00;99.90
21849;DHT22;11089;49.852;19.700;2023-07-20T01:11:19;17.90;99.90
21849;DHT22;11089;49.852;19.700;2023-07-20T01:14:23;17.90;99.90
21849;DHT22;11089;49.852;19.700;2023-07-20T01:17:24;18.00;99.90
21849;DHT22;11089;49.852;19.700;2023-07-20T01:20:25;18.10;1.00
21849;DHT22;11089;49.852;19.700;2023-07-20T01:23:56;18.30;1.00
21849;DHT22;11089;49.852;19.700;2023-07-20T01:33:36;18.10;99.90
21849;DHT22;11089;49.852;19.700;2023-07-20T01:36:37;18.30;99.90
21849;DHT22;11089;49.852;19.700;2023-07-20T01:39:38;18.20;99.90
21849;DHT22;11089;49.852;19.700;2023-07-20T01:42:44;18.30;99.90
21849;DHT22;11089;49.852;19.700;2023-07-20T01:45:46;18.30;99.90
21849;DHT22;11089;49.852;19.700;2023-07-20T01:48:46;18.40;99.90
21849;DHT22;11089;49.852;19.700;2023-07-20T01:51:47;18.40;99.90
21849;DHT22;11089;49.852;19.700;2023-07-20T01:54:48;18.40;99.90
21849;DHT22;11089;49.852;19.700;2023-07-20T01:57:49;18.40;99.90
21849;DHT22;11089;49.852;19.700;2023-07-20T02:00:50;18.40;99.90
21849;DHT22;11089;49.852;19.700;2023-07-20T02:03:51;18.40;99.90
21849;DHT22;11089;49.852;19.700;2023-07-20T02:06:52;18.50;98.30
21849;DHT22;11089;49.852;19.700;2023-07-20T02:09:52;18.40;99.90
21849;DHT22;11089;49.852;19.700;2023-07-20T02:12:53;18.50;99.90
21849;DHT22;11089;49.852;19.700;2023-07-20T02:15:55;18.50;99.90
21849;DHT22;11089;49.852;19.700;2023-07-20T02:18:56;18.50;99.90
21849;DHT22;11089;49.852;19.700;2023-07-20T02:21:57;18.40;99.90
21849;DHT22;11089;49.852;19.700;2023-07-20T02:24:58;18.50;99.90
21849;DHT22;11089;49.852;19.700;2023-07-20T02:27:59;18.50;99.90
21849;DHT22;11089;49.852;19.700;2023-07-20T02:31:00;18.50;99.90
21849;DHT22;11089;49.852;19.700;2023-07-20T02:34:01;18.50;99.90
21849;DHT22;11089;49.852;19.700;2023-07-20T02:37:02;18.30;99.90
21849;DHT22;11089;49.852;19.700;2023-07-20T02:40:03;18.30;1.00
21849;DHT22;11089;49.852;19.700;2023-07-20T02:43:05;18.30;1.00
21849;DHT22;11089;49.852;19.700;2023-07-20T02:46:06;18.30;1.00
21849;DHT22;11089;49.852;19.700;2023-07-20T02:49:06;18.20;1.00
21849;DHT22;11089;49.852;19.700;2023-07-20T02:52:07;18.20;1.00
21849;DHT22;11089;49.852;19.700;2023-07-20T02:55:09;18.30;1.00
21849;DHT22;11089;49.852;19.700;2023-07-20T02:58:10;18.30;1.00
21849;DHT22;11089;49.852;19.700;2023-07-20T03:01:11;18.30;1.00
21849;DHT22;11089;49.852;19.700;2023-07-20T03:04:12;18.20;99.90
21849;DHT22;11089;49.852;19.700;2023-07-20T03:07:13;18.10;1.00
21849;DHT22;11089;49.852;19.700;2023-07-20T03:10:14;18.10;1.00
21849;DHT22;11089;49.852;19.700;2023-07-20T03:13:15;18.00;1.00
21849;DHT22;11089;49.852;19.700;2023-07-20T03:16:19;18.00;1.00
21849;DHT22;11089;49.852;19.700;2023-07-20T03:19:20;17.90;99.90
21849;DHT22;11089;49.852;19.700;2023-07-20T03:22:21;18.00;1.00
21849;DHT22;11089;49.852;19.700;2023-07-20T03:25:22;18.10;1.00
21849;DHT22;11089;49.852;19.700;2023-07-20T03:28:23;18.10;1.00
21849;DHT22;11089;49.852;19.700;2023-07-20T03:31:24;18.00;1.00
21849;DHT22;11089;49.852;19.700;2023-07-20T03:34:25;18.00;99.90
21849;DHT22;11089;49.852;19.700;2023-07-20T03:37:26;18.00;99.90
21849;DHT22;11089;49.852;19.700;2023-07-20T03:40:26;18.00;1.00
21849;DHT22;11089;49.852;19.700;2023-07-20T03:43:28;18.10;99.90
21849;DHT22;11089;49.852;19.700;2023-07-20T03:46:29;18.10;99.90
21849;DHT22;11089;49.852;19.700;2023-07-20T03:49:30;18.10;99.90
21849;DHT22;11089;49.852;19.700;2023-07-20T03:52:30;18.10;99.90
21849;DHT22;11089;49.852;19.700;2023-07-20T03:55:31;18.10;99.90
21849;DHT22;11089;49.852;19.700;2023-07-20T03:58:32;18.10;88.60
21849;DHT22;11089;49.852;19.700;2023-07-20T04:01:33;18.20;99.90
21849;DHT22;11089;49.852;19.700;2023-07-20T04:04:37;18.20;99.90
21849;DHT22;11089;49.852;19.700;2023-07-20T04:07:38;18.30;1.00
21849;DHT22;11089;49.852;19.700;2023-07-20T04:10:42;18.20;99.90
21849;DHT22;11089;49.852;19.700;2023-07-20T04:13:43;18.20;99.90
21849;DHT22;11089;49.852;19.700;2023-07-20T04:16:46;18.30;34.20
21849;DHT22;11089;49.852;19.700;2023-07-20T04:19:47;18.30;52.40
21849;DHT22;11089;49.852;19.700;2023-07-20T04:22:48;18.20;1.00
21849;DHT22;11089;49.852;19.700;2023-07-20T04:25:50;18.20;56.40
21849;DHT22;11089;49.852;19.700;2023-07-20T04:28:51;18.10;17.10
21849;DHT22;11089;49.852;19.700;2023-07-20T04:31:53;18.00;1.00
21849;DHT22;11089;49.852;19.700;2023-07-20T04:34:54;18.10;97.00
21849;DHT22;11089;49.852;19.700;2023-07-20T04:37:55;18.10;1.00
21849;DHT22;11089;49.852;19.700;2023-07-20T04:40:55;18.20;99.90
21849;DHT22;11089;49.852;19.700;2023-07-20T04:43:56;18.20;99.90
21849;DHT22;11089;49.852;19.700;2023-07-20T04:46:57;18.10;99.90
21849;DHT22;11089;49.852;19.700;2023-07-20T04:49:58;18.20;1.00
21849;DHT22;11089;49.852;19.700;2023-07-20T04:52:59;18.20;99.90
21849;DHT22;11089;49.852;19.700;2023-07-20T04:55:59;18.20;99.90
21849;DHT22;11089;49.852;19.700;2023-07-20T04:59:00;18.20;99.90
21849;DHT22;11089;49.852;19.700;2023-07-20T05:02:01;18.20;14.70
21849;DHT22;11089;49.852;19.700;2023-07-20T05:05:03;18.20;99.90
21849;DHT22;11089;49.852;19.700;2023-07-20T05:08:06;18.20;99.90
21849;DHT22;11089;49.852;19.700;2023-07-20T05:11:07;18.20;99.90
21849;DHT22;11089;49.852;19.700;2023-07-20T05:14:07;18.20;99.90
21849;DHT22;11089;49.852;19.700;2023-07-20T05:17:08;18.20;99.90
21849;DHT22;11089;49.852;19.700;2023-07-20T05:20:09;18.20;99.90
21849;DHT22;11089;49.852;19.700;2023-07-20T05:23:10;18.30;99.90
21849;DHT22;11089;49.852;19.700;2023-07-20T05:26:11;18.40;91.00
21849;DHT22;11089;49.852;19.700;2023-07-20T05:29:12;18.60;1.00
21849;DHT22;11089;49.852;19.700;2023-07-20T05:32:14;18.60;1.00
21849;DHT22;11089;49.852;19.700;2023-07-20T05:35:15;18.80;1.00
21849;DHT22;11089;49.852;19.700;2023-07-20T05:38:17;18.80;1.00
21849;DHT22;11089;49.852;19.700;2023-07-20T05:41:18;18.80;1.00
21849;DHT22;11089;49.852;19.700;2023-07-20T05:44:20;18.90;1.00
21849;DHT22;11089;49.852;19.700;2023-07-20T05:47:21;18.90;1.00
21849;DHT22;11089;49.852;19.700;2023-07-20T05:50:21;19.10;1.00
21849;DHT22;11089;49.852;19.700;2023-07-20T05:53:22;19.10;1.00
21849;DHT22;11089;49.852;19.700;2023-07-20T05:56:23;19.10;1.00
21849;DHT22;11089;49.852;19.700;2023-07-20T05:59:26;19.00;1.00
21849;DHT22;11089;49.852;19.700;2023-07-20T06:02:28;18.80;1.00
21849;DHT22;11089;49.852;19.700;2023-07-20T06:05:29;18.80;1.00
21849;DHT22;11089;49.852;19.700;2023-07-20T06:08:31;19.00;1.00
21849;DHT22;11089;49.852;19.700;2023-07-20T06:11:32;19.30;1.00
21849;DHT22;11089;49.852;19.700;2023-07-20T06:14:33;19.40;99.90
21849;DHT22;11089;49.852;19.700;2023-07-20T06:17:33;19.50;99.90
21849;DHT22;11089;49.852;19.700;2023-07-20T06:20:34;19.40;99.90
21849;DHT22;11089;49.852;19.700;2023-07-20T06:23:35;19.40;99.90
21849;DHT22;11089;49.852;19.700;2023-07-20T06:26:36;19.30;99.90
21849;DHT22;11089;49.852;19.700;2023-07-20T06:29:39;19.50;99.90
21849;DHT22;11089;49.852;19.700;2023-07-20T06:32:40;19.60;99.90
21849;DHT22;11089;49.852;19.700;2023-07-20T06:35:44;19.70;99.90
21849;DHT22;11089;49.852;19.700;2023-07-20T06:38:45;19.70;99.90
21849;DHT22;11089;49.852;19.700;2023-07-20T06:41:49;19.70;99.90
21849;DHT22;11089;49.852;19.700;2023-07-20T06:44:49;19.90;99.90
21849;DHT22;11089;49.852;19.700;2023-07-20T06:47:50;20.00;99.90
21849;DHT22;11089;49.852;19.700;2023-07-20T06:50:51;20.10;99.90
21849;DHT22;11089;49.852;19.700;2023-07-20T06:53:52;20.10;99.90
21849;DHT22;11089;49.852;19.700;2023-07-20T06:56:53;20.20;99.90
21849;DHT22;11089;49.852;19.700;2023-07-20T06:59:56;20.30;92.20
21849;DHT22;11089;49.852;19.700;2023-07-20T07:02:57;20.40;1.00
21849;DHT22;11089;49.852;19.700;2023-07-20T07:05:57;20.40;30.80
21849;DHT22;11089;49.852;19.700;2023-07-20T07:08:58;20.60;1.00
21849;DHT22;11089;49.852;19.700;2023-07-20T07:11:59;20.60;35.20
21849;DHT22;11089;49.852;19.700;2023-07-20T07:15:00;20.70;1.00
21849;DHT22;11089;49.852;19.700;2023-07-20T07:18:01;20.70;1.00
21849;DHT22;11089;49.852;19.700;2023-07-20T07:21:04;20.80;1.00
21849;DHT22;11089;49.852;19.700;2023-07-20T07:24:05;20.80;1.00
21849;DHT22;11089;49.852;19.700;2023-07-20T07:27:08;20.90;1.00
21849;DHT22;11089;49.852;19.700;2023-07-20T07:30:10;21.10;1.00
21849;DHT22;11089;49.852;19.700;2023-07-20T07:33:11;21.20;1.00
21849;DHT22;11089;49.852;19.700;2023-07-20T07:36:12;21.30;1.00
21849;DHT22;11089;49.852;19.700;2023-07-20T07:39:12;21.40;1.00
21849;DHT22;11089;49.852;19.700;2023-07-20T07:42:14;21.60;1.00
21849;DHT22;11089;49.852;19.700;2023-07-20T07:45:15;21.70;1.00
21849;DHT22;11089;49.852;19.700;2023-07-20T07:48:17;21.70;1.00
21849;DHT22;11089;49.852;19.700;2023-07-20T07:51:18;21.80;1.00
21849;DHT22;11089;49.852;19.700;2023-07-20T07:54:19;21.90;1.00
21849;DHT22;11089;49.852;19.700;2023-07-20T07:57:20;21.80;1.00
21849;DHT22;11089;49.852;19.700;2023-07-20T08:00:21;21.70;1.00
21849;DHT22;11089;49.852;19.700;2023-07-20T08:03:22;21.70;1.00
21849;DHT22;11089;49.852;19.700;2023-07-20T08:06:24;21.90;1.00
21849;DHT22;11089;49.852;19.700;2023-07-20T08:09:26;22.20;1.00
21849;DHT22;11089;49.852;19.700;2023-07-20T08:12:27;22.20;1.00
21849;DHT22;11089;49.852;19.700;2023-07-20T08:15:28;22.30;1.00
21849;DHT22;11089;49.852;19.700;2023-07-20T08:18:29;22.40;1.00
21849;DHT22;11089;49.852;19.700;2023-07-20T08:21:33;22.60;1.00
21849;DHT22;11089;49.852;19.700;2023-07-20T08:24:34;22.80;1.00
21849;DHT22;11089;49.852;19.700;2023-07-20T08:27:35;22.90;1.00
21849;DHT22;11089;49.852;19.700;2023-07-20T08:30:47;22.90;1.00
21849;DHT22;11089;49.852;19.700;2023-07-20T08:33:48;22.90;1.00
21849;DHT22;11089;49.852;19.700;2023-07-20T08:36:49;23.20;1.00
21849;DHT22;11089;49.852;19.700;2023-07-20T08:39:50;23.40;1.00
21849;DHT22;11089;49.852;19.700;2023-07-20T08:42:51;23.50;1.00
21849;DHT22;11089;49.852;19.700;2023-07-20T08:45:54;23.70;1.00
21849;DHT22;11089;49.852;19.700;2023-07-20T08:48:58;24.00;1.00
21849;DHT22;11089;49.852;19.700;2023-07-20T08:52:00;24.10;1.00
21849;DHT22;11089;49.852;19.700;2023-07-20T08:55:01;24.10;1.00
21849;DHT22;11089;49.852;19.700;2023-07-20T08:58:05;24.20;1.00
21849;DHT22;11089;49.852;19.700;2023-07-20T09:01:09;24.40;1.00
21849;DHT22;11089;49.852;19.700;2023-07-20T09:04:11;24.10;1.00
21849;DHT22;11089;49.852;19.700;2023-07-20T09:07:13;24.10;1.00
21849;DHT22;11089;49.852;19.700;2023-07-20T09:10:15;24.10;1.00
21849;DHT22;11089;49.852;19.700;2023-07-20T09:13:16;24.20;1.00
21849;DHT22;11089;49.852;19.700;2023-07-20T09:16:17;24.50;1.00
21849;DHT22;11089;49.852;19.700;2023-07-20T09:19:18;24.50;1.00
21849;DHT22;11089;49.852;19.700;2023-07-20T09:22:18;24.50;1.00
21849;DHT22;11089;49.852;19.700;2023-07-20T09:25:20;24.40;1.00
21849;DHT22;11089;49.852;19.700;2023-07-20T09:28:21;24.40;1.00
21849;DHT22;11089;49.852;19.700;2023-07-20T09:31:22;24.70;1.00
21849;DHT22;11089;49.852;19.700;2023-07-20T09:34:23;24.80;1.00
21849;DHT22;11089;49.852;19.700;2023-07-20T09:37:24;25.10;1.00
21849;DHT22;11089;49.852;19.700;2023-07-20T09:40:28;24.90;1.00
21849;DHT22;11089;49.852;19.700;2023-07-20T09:43:29;24.90;1.00
21849;DHT22;11089;49.852;19.700;2023-07-20T09:46:45;24.90;1.00
21849;DHT22;11089;49.852;19.700;2023-07-20T09:49:46;25.10;1.00
21849;DHT22;11089;49.852;19.700;2023-07-20T09:52:47;25.30;1.00
21849;DHT22;11089;49.852;19.700;2023-07-20T09:55:48;25.50;1.00
21849;DHT22;11089;49.852;19.700;2023-07-20T09:58:49;25.50;1.00
21849;DHT22;11089;49.852;19.700;2023-07-20T10:01:53;25.60;1.00
21849;DHT22;11089;49.852;19.700;2023-07-20T10:04:57;25.50;1.00
21849;DHT22;11089;49.852;19.700;2023-07-20T10:08:02;25.80;1.00
21849;DHT22;11089;49.852;19.700;2023-07-20T10:11:06;26.00;1.00
21849;DHT22;11089;49.852;19.700;2023-07-20T10:14:07;26.10;1.00
21849;DHT22;11089;49.852;19.700;2023-07-20T10:17:13;26.00;1.00
21849;DHT22;11089;49.852;19.700;2023-07-20T10:20:16;26.00;1.00
21849;DHT22;11089;49.852;19.700;2023-07-20T10:23:21;26.00;1.00
21849;DHT22;11089;49.852;19.700;2023-07-20T10:26:22;26.10;1.00
21849;DHT22;11089;49.852;19.700;2023-07-20T10:29:24;26.40;1.00
21849;DHT22;11089;49.852;19.700;2023-07-20T10:32:25;26.90;1.00
21849;DHT22;11089;49.852;19.700;2023-07-20T10:35:26;26.90;1.00
21849;DHT22;11089;49.852;19.700;2023-07-20T10:41:46;27.10;1.00
21849;DHT22;11089;49.852;19.700;2023-07-20T10:44:47;27.30;1.00
21849;DHT22;11089;49.852;19.700;2023-07-20T10:47:48;27.60;1.00
21849;DHT22;11089;49.852;19.700;2023-07-20T10:51:12;27.60;1.00
21849;DHT22;11089;49.852;19.700;2023-07-20T10:57:29;28.00;1.00
21849;DHT22;11089;49.852;19.700;2023-07-20T11:00:31;27.80;1.00
21849;DHT22;11089;49.852;19.700;2023-07-20T11:03:37;27.80;1.00
21849;DHT22;11089;49.852;19.700;2023-07-20T11:06:45;28.30;99.90
21849;DHT22;11089;49.852;19.700;2023-07-20T11:09:46;28.60;99.90
21849;DHT22;11089;49.852;19.700;2023-07-20T11:16:17;28.40;99.90
21849;DHT22;11089;49.852;19.700;2023-07-20T11:22:20;27.40;99.90
21849;DHT22;11089;49.852;19.700;2023-07-20T11:25:21;27.00;99.90
21849;DHT22;11089;49.852;19.700;2023-07-20T11:28:22;27.30;99.90
21849;DHT22;11089;49.852;19.700;2023-07-20T11:31:23;27.90;99.90
21849;DHT22;11089;49.852;19.700;2023-07-20T11:34:24;28.20;99.90
21849;DHT22;11089;49.852;19.700;2023-07-20T11:37:27;27.60;99.90
21849;DHT22;11089;49.852;19.700;2023-07-20T11:40:28;27.70;99.90
21849;DHT22;11089;49.852;19.700;2023-07-20T11:43:30;28.00;99.90
21849;DHT22;11089;49.852;19.700;2023-07-20T11:46:31;28.20;99.90
21849;DHT22;11089;49.852;19.700;2023-07-20T11:49:38;28.20;99.90
21849;DHT22;11089;49.852;19.700;2023-07-20T11:52:40;27.60;99.90
21849;DHT22;11089;49.852;19.700;2023-07-20T11:55:41;27.60;99.90
21849;DHT22;11089;49.852;19.700;2023-07-20T11:58:44;27.70;99.90
21849;DHT22;11089;49.852;19.700;2023-07-20T12:01:45;27.40;99.90
21849;DHT22;11089;49.852;19.700;2023-07-20T12:04:47;27.50;99.90
21849;DHT22;11089;49.852;19.700;2023-07-20T12:07:49;27.30;99.90
21849;DHT22;11089;49.852;19.700;2023-07-20T12:10:52;27.60;99.90
21849;DHT22;11089;49.852;19.700;2023-07-20T12:13:58;27.40;99.90
21849;DHT22;11089;49.852;19.700;2023-07-20T12:16:59;27.30;99.90
21849;DHT22;11089;49.852;19.700;2023-07-20T12:20:00;27.00;99.90
21849;DHT22;11089;49.852;19.700;2023-07-20T12:23:18;27.20;99.90
21849;DHT22;11089;49.852;19.700;2023-07-20T12:26:20;27.50;99.90
21849;DHT22;11089;49.852;19.700;2023-07-20T12:29:22;27.60;99.90
21849;DHT22;11089;49.852;19.700;2023-07-20T12:32:23;27.60;99.90
21849;DHT22;11089;49.852;19.700;2023-07-20T12:35:24;27.30;99.90
21849;DHT22;11089;49.852;19.700;2023-07-20T12:38:25;26.90;99.90
21849;DHT22;11089;49.852;19.700;2023-07-20T12:41:28;27.10;99.90
21849;DHT22;11089;49.852;19.700;2023-07-20T12:44:29;27.00;99.90
21849;DHT22;11089;49.852;19.700;2023-07-20T12:47:30;27.10;99.90
21849;DHT22;11089;49.852;19.700;2023-07-20T12:50:30;26.80;99.90
21849;DHT22;11089;49.852;19.700;2023-07-20T12:53:32;26.80;99.90
21849;DHT22;11089;49.852;19.700;2023-07-20T12:56:33;27.00;99.90
21849;DHT22;11089;49.852;19.700;2023-07-20T12:59:34;26.90;99.90
21849;DHT22;11089;49.852;19.700;2023-07-20T13:02:35;27.00;99.90
21849;DHT22;11089;49.852;19.700;2023-07-20T13:05:36;27.10;99.90
21849;DHT22;11089;49.852;19.700;2023-07-20T13:08:37;27.10;99.90
21849;DHT22;11089;49.852;19.700;2023-07-20T13:11:38;27.20;99.90
21849;DHT22;11089;49.852;19.700;2023-07-20T13:14:39;27.10;99.90
21849;DHT22;11089;49.852;19.700;2023-07-20T13:17:40;27.20;99.90
21849;DHT22;11089;49.852;19.700;2023-07-20T13:20:41;27.20;99.90
21849;DHT22;11089;49.852;19.700;2023-07-20T13:23:41;27.10;99.90
21849;DHT22;11089;49.852;19.700;2023-07-20T13:26:42;27.10;99.90
21849;DHT22;11089;49.852;19.700;2023-07-20T13:29:43;27.10;99.90
21849;DHT22;11089;49.852;19.700;2023-07-20T13:32:45;27.20;99.90
21849;DHT22;11089;49.852;19.700;2023-07-20T13:35:46;27.20;99.90
21849;DHT22;11089;49.852;19.700;2023-07-20T13:38:47;27.10;99.90
21849;DHT22;11089;49.852;19.700;2023-07-20T13:41:49;27.10;99.90
21849;DHT22;11089;49.852;19.700;2023-07-20T13:44:50;26.80;99.90
21849;DHT22;11089;49.852;19.700;2023-07-20T13:47:51;26.90;99.90
21849;DHT22;11089;49.852;19.700;2023-07-20T13:50:52;26.90;99.90
21849;DHT22;11089;49.852;19.700;2023-07-20T13:53:53;26.70;99.90
21849;DHT22;11089;49.852;19.700;2023-07-20T13:56:54;26.90;99.90
21849;DHT22;11089;49.852;19.700;2023-07-20T13:59:55;26.90;99.90
21849;DHT22;11089;49.852;19.700;2023-07-20T14:02:56;27.00;99.90
21849;DHT22;11089;49.852;19.700;2023-07-20T14:05:57;26.70;99.90
21849;DHT22;11089;49.852;19.700;2023-07-20T14:08:58;26.50;99.90
21849;DHT22;11089;49.852;19.700;2023-07-20T14:11:59;26.30;99.90
21849;DHT22;11089;49.852;19.700;2023-07-20T14:15:00;26.50;99.90
21849;DHT22;11089;49.852;19.700;2023-07-20T14:18:01;26.30;99.90
21849;DHT22;11089;49.852;19.700;2023-07-20T14:21:02;26.20;99.90
21849;DHT22;11089;49.852;19.700;2023-07-20T14:24:05;26.20;99.90
21849;DHT22;11089;49.852;19.700;2023-07-20T14:27:06;26.00;99.90
21849;DHT22;11089;49.852;19.700;2023-07-20T14:30:07;25.80;99.90
21849;DHT22;11089;49.852;19.700;2023-07-20T14:33:09;25.70;99.90
21849;DHT22;11089;49.852;19.700;2023-07-20T14:36:10;25.60;99.90
21849;DHT22;11089;49.852;19.700;2023-07-20T14:39:11;25.70;99.90
21849;DHT22;11089;49.852;19.700;2023-07-20T14:42:12;25.70;99.90
21849;DHT22;11089;49.852;19.700;2023-07-20T14:45:14;25.60;99.90
21849;DHT22;11089;49.852;19.700;2023-07-20T14:48:15;25.60;99.90
21849;DHT22;11089;49.852;19.700;2023-07-20T14:51:15;25.40;99.90
21849;DHT22;11089;49.852;19.700;2023-07-20T14:54:16;25.30;99.90
21849;DHT22;11089;49.852;19.700;2023-07-20T14:57:17;25.10;99.90
21849;DHT22;11089;49.852;19.700;2023-07-20T15:00:18;25.00;99.90
21849;DHT22;11089;49.852;19.700;2023-07-20T15:03:20;24.90;99.90
21849;DHT22;11089;49.852;19.700;2023-07-20T15:06:21;24.70;99.90
21849;DHT22;11089;49.852;19.700;2023-07-20T15:09:22;24.50;99.90
21849;DHT22;11089;49.852;19.700;2023-07-20T15:12:23;24.50;99.90
21849;DHT22;11089;49.852;19.700;2023-07-20T15:15:24;24.30;99.90
21849;DHT22;11089;49.852;19.700;2023-07-20T15:18:24;24.00;99.90
21849;DHT22;11089;49.852;19.700;2023-07-20T15:21:26;23.50;99.90
21849;DHT22;11089;49.852;19.700;2023-07-20T15:24:30;23.00;99.90
21849;DHT22;11089;49.852;19.700;2023-07-20T15:27:31;22.60;99.90
21849;DHT22;11089;49.852;19.700;2023-07-20T15:30:32;22.50;99.90
21849;DHT22;11089;49.852;19.700;2023-07-20T15:33:33;22.00;1.00
21849;DHT22;11089;49.852;19.700;2023-07-20T15:36:34;21.70;1.00
21849;DHT22;11089;49.852;19.700;2023-07-20T15:39:35;21.60;1.00
21849;DHT22;11089;49.852;19.700;2023-07-20T15:42:36;21.50;1.00
21849;DHT22;11089;49.852;19.700;2023-07-20T15:45:36;21.30;1.00
21849;DHT22;11089;49.852;19.700;2023-07-20T15:48:37;21.40;1.00
21849;DHT22;11089;49.852;19.700;2023-07-20T15:51:38;21.40;1.00
21849;DHT22;11089;49.852;19.700;2023-07-20T15:54:42;21.30;99.90
21849;DHT22;11089;49.852;19.700;2023-07-20T15:57:43;21.30;1.00
21849;DHT22;11089;49.852;19.700;2023-07-20T16:00:44;21.40;1.00
21849;DHT22;11089;49.852;19.700;2023-07-20T16:03:45;21.70;1.00
21849;DHT22;11089;49.852;19.700;2023-07-20T16:06:46;21.40;1.20
21849;DHT22;11089;49.852;19.700;2023-07-20T16:09:47;20.90;99.90
21849;DHT22;11089;49.852;19.700;2023-07-20T16:12:47;20.70;99.90
21849;DHT22;11089;49.852;19.700;2023-07-20T16:15:51;20.60;99.90
21849;DHT22;11089;49.852;19.700;2023-07-20T16:18:52;20.60;99.90
21849;DHT22;11089;49.852;19.700;2023-07-20T16:21:54;20.30;99.90
21849;DHT22;11089;49.852;19.700;2023-07-20T16:24:55;20.20;99.90
21849;DHT22;11089;49.852;19.700;2023-07-20T16:27:56;20.20;99.90
21849;DHT22;11089;49.852;19.700;2023-07-20T16:30:57;20.40;99.90
21849;DHT22;11089;49.852;19.700;2023-07-20T16:33:58;20.60;99.90
21849;DHT22;11089;49.852;19.700;2023-07-20T16:36:59;20.80;99.90
21849;DHT22;11089;49.852;19.700;2023-07-20T16:40:00;20.60;99.90
21849;DHT22;11089;49.852;19.700;2023-07-20T16:43:01;20.70;99.90
21849;DHT22;11089;49.852;19.700;2023-07-20T16:46:04;20.80;99.90
21849;DHT22;11089;49.852;19.700;2023-07-20T16:49:05;20.60;99.90
21849;DHT22;11089;49.852;19.700;2023-07-20T16:52:08;20.40;99.90
21849;DHT22;11089;49.852;19.700;2023-07-20T16:55:09;20.20;99.90
21849;DHT22;11089;49.852;19.700;2023-07-20T16:58:10;20.00;1.00
21849;DHT22;11089;49.852;19.700;2023-07-20T17:01:11;19.80;1.00
21849;DHT22;11089;49.852;19.700;2023-07-20T17:04:12;19.60;1.00
21849;DHT22;11089;49.852;19.700;2023-07-20T17:07:15;19.70;1.00
21849;DHT22;11089;49.852;19.700;2023-07-20T17:10:16;19.70;1.00
21849;DHT22;11089;49.852;19.700;2023-07-20T17:13:17;19.80;99.90
21849;DHT22;11089;49.852;19.700;2023-07-20T17:16:18;19.90;1.00
21849;DHT22;11089;49.852;19.700;2023-07-20T17:19:19;19.90;1.00
21849;DHT22;11089;49.852;19.700;2023-07-20T17:22:19;19.90;99.90
21849;DHT22;11089;49.852;19.700;2023-07-20T17:25:20;19.80;1.00
21849;DHT22;11089;49.852;19.700;2023-07-20T17:28:21;19.80;99.90
21849;DHT22;11089;49.852;19.700;2023-07-20T17:31:22;19.80;1.00
21849;DHT22;11089;49.852;19.700;2023-07-20T17:34:26;19.90;99.90
21849;DHT22;11089;49.852;19.700;2023-07-20T17:37:27;19.80;1.00
21849;DHT22;11089;49.852;19.700;2023-07-20T17:40:28;19.80;1.00
21849;DHT22;11089;49.852;19.700;2023-07-20T17:43:29;19.70;1.00
21849;DHT22;11089;49.852;19.700;2023-07-20T17:46:30;19.70;1.00
21849;DHT22;11089;49.852;19.700;2023-07-20T17:49:31;19.70;1.00
21849;DHT22;11089;49.852;19.700;2023-07-20T17:52:32;19.60;1.00
21849;DHT22;11089;49.852;19.700;2023-07-20T17:55:33;19.60;1.00
21849;DHT22;11089;49.852;19.700;2023-07-20T17:58:34;19.50;1.00
21849;DHT22;11089;49.852;19.700;2023-07-20T18:01:35;19.50;1.00
21849;DHT22;11089;49.852;19.700;2023-07-20T18:04:36;19.40;1.00
21849;DHT22;11089;49.852;19.700;2023-07-20T18:07:37;19.30;1.00
21849;DHT22;11089;49.852;19.700;2023-07-20T18:10:41;19.30;1.00
21849;DHT22;11089;49.852;19.700;2023-07-20T18:13:41;19.20;1.00
21849;DHT22;11089;49.852;19.700;2023-07-20T18:16:42;19.10;1.00
21849;DHT22;11089;49.852;19.700;2023-07-20T18:19:43;19.00;31.80
21849;DHT22;11089;49.852;19.700;2023-07-20T18:22:45;18.90;57.00
21849;DHT22;11089;49.852;19.700;2023-07-20T18:25:46;19.00;1.00
21849;DHT22;11089;49.852;19.700;2023-07-20T18:28:47;18.90;1.00
21849;DHT22;11089;49.852;19.700;2023-07-20T18:31:48;18.90;1.00
21849;DHT22;11089;49.852;19.700;2023-07-20T18:34:49;18.70;1.10
21849;DHT22;11089;49.852;19.700;2023-07-20T18:37:50;18.60;73.20
21849;DHT22;11089;49.852;19.700;2023-07-20T18:40:51;18.60;1.00
21849;DHT22;11089;49.852;19.700;2023-07-20T18:43:52;18.60;1.00
21849;DHT22;11089;49.852;19.700;2023-07-20T18:46:56;18.60;1.00
21849;DHT22;11089;49.852;19.700;2023-07-20T18:49:57;18.40;1.00
21849;DHT22;11089;49.852;19.700;2023-07-20T18:52:58;18.40;1.00
21849;DHT22;11089;49.852;19.700;2023-07-20T18:56:01;18.20;1.00
21849;DHT22;11089;49.852;19.700;2023-07-20T18:59:02;18.10;1.00
21849;DHT22;11089;49.852;19.700;2023-07-20T19:02:03;18.00;1.00
21849;DHT22;11089;49.852;19.700;2023-07-20T19:05:04;18.10;1.00
21849;DHT22;11089;49.852;19.700;2023-07-20T19:08:05;18.00;1.00
21849;DHT22;11089;49.852;19.700;2023-07-20T19:11:06;18.00;1.00
21849;DHT22;11089;49.852;19.700;2023-07-20T19:14:10;18.00;1.00
21849;DHT22;11089;49.852;19.700;2023-07-20T19:17:10;17.90;1.00